Time;durP1;ratioP1;P1;durP2;ratioP2;P2;SDS_P1;SDS_P2;PMS_P1;PMS_P2;Temp;Humidity;BMP_temperature;BMP_pressure;BME280_temperature;BME280_humidity;BME280_pressure;Samples;Min_cycle;Max_cycle;Signal;HPM_P1;HPM_P2
2023/04/20 00:00:56;;;;;;;;;;;8.80;45.60;;;;;;5072809;28;20007;-30
2023/04/20 00:03:22;;;;;;;;;;;8.80;45.70;;;;;;5074074;28;19924;-30
2023/04/20 00:05:50;;;;;;;;;;;8.70;45.80;;;;;;5073908;28;20237;-30
2023/04/20 00:08:18;;;;;;;;;;;8.70;45.80;;;;;;5074124;28;19958;-30
2023/04/20 00:10:44;;;;;;;;;;;8.70;45.80;;;;;;5073905;28;19920;-32
2023/04/20 00:13:09;;;;;;;;;;;8.70;45.90;;;;;;5073756;28;19937;-28
2023/04/20 00:15:35;;;;;;;;;;;8.60;46.00;;;;;;5073642;28;19912;-29
2023/04/20 00:18:00;;;;;;;;;;;8.60;46.20;;;;;;5073619;28;20030;-31
2023/04/20 00:20:27;;;;;;;;;;;8.60;46.30;;;;;;5073633;28;20428;-28
2023/04/20 00:22:53;;;;;;;;;;;8.60;46.30;;;;;;5073756;28;19962;-30
2023/04/20 00:25:19;;;;;;;;;;;8.50;46.40;;;;;;5073455;28;20353;-29
2023/04/20 00:27:44;;;;;;;;;;;8.50;46.50;;;;;;5073481;28;19913;-29
2023/04/20 00:30:10;;;;;;;;;;;8.50;46.60;;;;;;5073222;28;20594;-29
2023/04/20 00:32:36;;;;;;;;;;;8.50;46.70;;;;;;5073571;28;19919;-39
2023/04/20 00:35:01;;;;;;;;;;;8.40;46.70;;;;;;5073334;28;19919;-28
2023/04/20 00:37:27;;;;;;;;;;;8.40;46.80;;;;;;5073229;28;20481;-29
2023/04/20 00:39:53;;;;;;;;;;;8.40;46.90;;;;;;5073173;28;20248;-28
2023/04/20 00:42:19;;;;;;;;;;;8.40;47.00;;;;;;5073313;28;19966;-30
2023/04/20 00:44:44;;;;;;;;;;;8.40;47.00;;;;;;5072945;28;20328;-32
2023/04/20 00:47:10;;;;;;;;;;;8.40;47.10;;;;;;5073030;28;19948;-28
2023/04/20 00:49:35;;;;;;;;;;;8.30;47.10;;;;;;5072904;28;20283;-29
2023/04/20 00:52:01;;;;;;;;;;;8.30;47.20;;;;;;5073019;28;20029;-28
2023/04/20 00:54:27;;;;;;;;;;;8.30;47.30;;;;;;5072836;28;19920;-41
2023/04/20 00:56:53;;;;;;;;;;;8.30;47.40;;;;;;5072980;28;19981;-29
2023/04/20 00:59:19;;;;;;;;;;;8.30;47.50;;;;;;5073059;28;19917;-28
2023/04/20 01:01:45;;;;;;;;;;;8.30;47.60;;;;;;5072882;28;20007;-28
2023/04/20 01:04:10;;;;;;;;;;;8.30;47.80;;;;;;5072772;28;20077;-31
2023/04/20 01:06:36;;;;;;;;;;;8.30;47.90;;;;;;5072808;28;20022;-28
2023/04/20 01:09:01;;;;;;;;;;;8.30;48.00;;;;;;5072948;28;20057;-29
2023/04/20 01:11:27;;;;;;;;;;;8.30;48.20;;;;;;5072910;28;19992;-31
2023/04/20 01:13:52;;;;;;;;;;;8.30;48.30;;;;;;5072372;28;20430;-33
2023/04/20 01:16:18;;;;;;;;;;;8.30;48.50;;;;;;5072694;28;19912;-36
2023/04/20 01:18:45;;;;;;;;;;;8.30;48.80;;;;;;5072586;28;19919;-30
2023/04/20 01:21:14;;;;;;;;;;;8.30;49.00;;;;;;5072416;28;19916;-31
2023/04/20 01:23:39;;;;;;;;;;;8.30;49.80;;;;;;5072385;28;20360;-31
2023/04/20 01:26:06;;;;;;;;;;;8.40;49.90;;;;;;5070968;28;19951;-30
2023/04/20 01:28:31;;;;;;;;;;;8.50;50.20;;;;;;5072206;28;20404;-31
2023/04/20 01:30:57;;;;;;;;;;;8.50;50.60;;;;;;5072397;28;19970;-30
2023/04/20 01:33:22;;;;;;;;;;;8.50;50.60;;;;;;5072280;28;20273;-29
2023/04/20 01:35:47;;;;;;;;;;;8.60;51.10;;;;;;5072264;28;20021;-31
2023/04/20 01:38:17;;;;;;;;;;;8.60;51.40;;;;;;5072305;28;20376;-29
2023/04/20 01:40:43;;;;;;;;;;;8.70;51.80;;;;;;5072185;28;20007;-31
2023/04/20 01:43:08;;;;;;;;;;;8.70;52.00;;;;;;5072359;28;19923;-29
2023/04/20 01:45:34;;;;;;;;;;;8.70;52.30;;;;;;5072133;28;19923;-33
2023/04/20 01:47:59;;;;;;;;;;;8.70;52.10;;;;;;5072201;28;19944;-31
2023/04/20 01:50:25;;;;;;;;;;;8.60;52.50;;;;;;5072319;28;19975;-29
2023/04/20 01:52:50;;;;;;;;;;;8.60;52.70;;;;;;5072268;28;19913;-31
2023/04/20 01:55:16;;;;;;;;;;;8.60;52.70;;;;;;5072050;28;19912;-29
2023/04/20 01:57:43;;;;;;;;;;;8.60;53.10;;;;;;5071999;28;19916;-38
2023/04/20 02:00:09;;;;;;;;;;;8.60;53.10;;;;;;5072078;28;19919;-28
2023/04/20 02:02:35;;;;;;;;;;;8.60;53.80;;;;;;5071948;28;19913;-30
2023/04/20 02:05:01;;;;;;;;;;;8.50;53.80;;;;;;5072020;28;19986;-32
2023/04/20 02:07:26;;;;;;;;;;;8.50;54.40;;;;;;5071791;28;19912;-30
2023/04/20 02:09:52;;;;;;;;;;;8.50;54.40;;;;;;5071340;28;19913;-32
2023/04/20 02:12:17;;;;;;;;;;;8.40;54.50;;;;;;5071849;28;19912;-29
2023/04/20 02:14:43;;;;;;;;;;;8.40;54.70;;;;;;5071973;28;19987;-34
2023/04/20 02:17:09;;;;;;;;;;;8.40;55.00;;;;;;5071961;28;19913;-29
2023/04/20 02:19:35;;;;;;;;;;;8.40;55.10;;;;;;5071865;28;19912;-28
2023/04/20 02:22:00;;;;;;;;;;;8.30;55.20;;;;;;5071831;28;19923;-29
2023/04/20 02:24:26;;;;;;;;;;;8.30;55.30;;;;;;5072757;28;19917;-29
2023/04/20 02:26:51;;;;;;;;;;;8.30;55.40;;;;;;5075880;28;19912;-30
2023/04/20 02:29:17;;;;;;;;;;;8.40;55.30;;;;;;5075681;28;19920;-30
2023/04/20 02:31:42;;;;;;;;;;;8.40;55.10;;;;;;5075760;28;19916;-34
2023/04/20 02:34:09;;;;;;;;;;;8.40;55.00;;;;;;5075840;28;19971;-33
2023/04/20 02:36:35;;;;;;;;;;;8.50;55.10;;;;;;5075806;28;19912;-30
2023/04/20 02:39:00;;;;;;;;;;;8.50;55.30;;;;;;5075643;28;19935;-29
2023/04/20 02:41:26;;;;;;;;;;;8.60;56.10;;;;;;5074166;28;19967;-29
2023/04/20 02:43:51;;;;;;;;;;;8.60;55.90;;;;;;5075449;28;19917;-30
2023/04/20 02:46:17;;;;;;;;;;;8.60;55.90;;;;;;5075566;28;19913;-28
2023/04/20 02:48:42;;;;;;;;;;;8.60;56.10;;;;;;5075411;28;19924;-29
2023/04/20 02:51:08;;;;;;;;;;;8.60;56.20;;;;;;5075304;28;19918;-28
2023/04/20 02:53:33;;;;;;;;;;;8.60;56.50;;;;;;5075576;28;20019;-31
2023/04/20 02:55:59;;;;;;;;;;;8.70;56.40;;;;;;5075038;28;19962;-31
2023/04/20 02:58:25;;;;;;;;;;;8.70;56.10;;;;;;5075149;28;19916;-31
2023/04/20 03:00:50;;;;;;;;;;;8.70;56.40;;;;;;5073714;28;19912;-28
2023/04/20 03:03:17;;;;;;;;;;;8.70;56.60;;;;;;5074768;28;19916;-28
2023/04/20 03:05:42;;;;;;;;;;;8.80;56.60;;;;;;5074991;28;19912;-31
2023/04/20 03:08:08;;;;;;;;;;;8.80;56.80;;;;;;5074945;28;19936;-28
2023/04/20 03:10:33;;;;;;;;;;;8.80;56.80;;;;;;5074546;28;19917;-33
2023/04/20 03:12:59;;;;;;;;;;;8.80;56.90;;;;;;5073407;28;19944;-33
2023/04/20 03:15:24;;;;;;;;;;;8.80;57.30;;;;;;5074604;28;19912;-32
2023/04/20 03:17:50;;;;;;;;;;;8.80;57.50;;;;;;5074534;28;19917;-38
2023/04/20 03:20:16;;;;;;;;;;;8.80;57.50;;;;;;5074496;28;20321;-28
2023/04/20 03:22:41;;;;;;;;;;;8.80;57.30;;;;;;5074333;28;19924;-38
2023/04/20 03:25:07;;;;;;;;;;;8.80;57.60;;;;;;5074302;28;19916;-28
2023/04/20 03:27:33;;;;;;;;;;;8.80;57.50;;;;;;5074440;28;19924;-29
2023/04/20 03:29:59;;;;;;;;;;;8.80;57.50;;;;;;5074144;28;20495;-29
2023/04/20 03:32:25;;;;;;;;;;;8.90;57.50;;;;;;5074422;28;19970;-31
2023/04/20 03:34:50;;;;;;;;;;;8.90;57.50;;;;;;5074112;28;19917;-30
2023/04/20 03:37:16;;;;;;;;;;;8.90;57.90;;;;;;5073840;28;20394;-31
2023/04/20 03:39:42;;;;;;;;;;;8.90;57.90;;;;;;5073830;28;19947;-29
2023/04/20 03:42:07;;;;;;;;;;;8.90;57.70;;;;;;5073979;28;20000;-32
2023/04/20 03:44:32;;;;;;;;;;;8.90;57.90;;;;;;5073939;28;20353;-31
2023/04/20 03:46:58;;;;;;;;;;;8.90;57.90;;;;;;5073692;28;19920;-28
2023/04/20 03:49:24;;;;;;;;;;;8.90;58.00;;;;;;5073606;28;19913;-35
2023/04/20 03:51:50;;;;;;;;;;;8.90;58.00;;;;;;5073783;28;20415;-38
2023/04/20 03:54:15;;;;;;;;;;;8.90;57.90;;;;;;5073884;28;19912;-29
2023/04/20 03:56:41;;;;;;;;;;;8.90;58.10;;;;;;5073634;28;19912;-30
2023/04/20 03:59:06;;;;;;;;;;;8.90;58.50;;;;;;5073552;28;20003;-37
2023/04/20 04:01:32;;;;;;;;;;;8.90;58.50;;;;;;5072178;28;20007;-34
2023/04/20 04:03:57;;;;;;;;;;;8.90;58.50;;;;;;5073435;28;20372;-30
2023/04/20 04:06:23;;;;;;;;;;;8.90;59.10;;;;;;5073323;28;19916;-31
2023/04/20 04:08:49;;;;;;;;;;;8.80;58.70;;;;;;5073112;28;20448;-29
2023/04/20 04:11:14;;;;;;;;;;;8.80;58.90;;;;;;5073272;28;19912;-34
2023/04/20 04:13:40;;;;;;;;;;;8.90;59.10;;;;;;5073469;28;19912;-33
2023/04/20 04:16:05;;;;;;;;;;;8.90;59.10;;;;;;5073283;28;19959;-31
2023/04/20 04:18:31;;;;;;;;;;;8.80;59.20;;;;;;5073152;28;20330;-29
2023/04/20 04:20:57;;;;;;;;;;;8.80;59.00;;;;;;5073301;28;19920;-28
2023/04/20 04:23:23;;;;;;;;;;;8.80;59.50;;;;;;5073065;28;19920;-29
2023/04/20 04:25:48;;;;;;;;;;;8.80;59.20;;;;;;5073126;28;19999;-41
2023/04/20 04:28:15;;;;;;;;;;;8.80;59.60;;;;;;5073003;28;20343;-34
2023/04/20 04:30:41;;;;;;;;;;;8.80;59.30;;;;;;5072814;28;19921;-30
2023/04/20 04:33:06;;;;;;;;;;;8.90;59.30;;;;;;5072974;28;19935;-29
2023/04/20 04:35:33;;;;;;;;;;;8.90;59.20;;;;;;5072918;28;20011;-28
2023/04/20 04:37:58;;;;;;;;;;;8.90;59.30;;;;;;5072899;28;19978;-28
2023/04/20 04:40:24;;;;;;;;;;;8.90;59.30;;;;;;5072776;28;19912;-30
2023/04/20 04:42:50;;;;;;;;;;;8.90;59.30;;;;;;5072836;28;19912;-30
2023/04/20 04:45:17;;;;;;;;;;;8.90;59.30;;;;;;5072655;28;19998;-31
2023/04/20 04:47:42;;;;;;;;;;;8.90;59.30;;;;;;5071969;28;19999;-29
2023/04/20 04:50:09;;;;;;;;;;;8.90;59.40;;;;;;5072511;28;19960;-28
2023/04/20 04:52:35;;;;;;;;;;;8.90;59.30;;;;;;5072404;28;19916;-39
2023/04/20 04:55:01;;;;;;;;;;;9.00;59.30;;;;;;5072425;28;19924;-32
2023/04/20 04:57:27;;;;;;;;;;;9.00;59.40;;;;;;5072441;28;19920;-29
2023/04/20 04:59:52;;;;;;;;;;;9.00;59.20;;;;;;5072598;28;20291;-30
2023/04/20 05:02:18;;;;;;;;;;;9.00;59.40;;;;;;5072578;28;19969;-28
2023/04/20 05:04:44;;;;;;;;;;;9.00;59.10;;;;;;5072404;28;19923;-32
2023/04/20 05:07:09;;;;;;;;;;;9.10;59.10;;;;;;5072213;28;19912;-33
2023/04/20 05:09:35;;;;;;;;;;;9.10;59.10;;;;;;5072375;28;20205;-32
2023/04/20 05:12:02;;;;;;;;;;;9.10;59.20;;;;;;5072450;28;19959;-30
2023/04/20 05:14:31;;;;;;;;;;;9.20;59.10;;;;;;5072675;28;20399;-33
2023/04/20 05:16:57;;;;;;;;;;;9.20;59.40;;;;;;5072648;28;19923;-30
2023/04/20 05:19:22;;;;;;;;;;;9.30;59.10;;;;;;5072625;28;20414;-34
2023/04/20 05:21:48;;;;;;;;;;;9.30;59.00;;;;;;5071181;28;19913;-35
2023/04/20 05:24:13;;;;;;;;;;;9.30;59.10;;;;;;5072345;28;19916;-32
2023/04/20 05:26:39;;;;;;;;;;;9.30;59.00;;;;;;5072562;28;19995;-33
2023/04/20 05:29:04;;;;;;;;;;;9.40;59.00;;;;;;5072216;28;19921;-32
2023/04/20 05:31:32;;;;;;;;;;;9.40;59.00;;;;;;5072195;28;20548;-29
2023/04/20 05:33:58;;;;;;;;;;;9.40;59.00;;;;;;5072269;28;20003;-30
2023/04/20 05:36:23;;;;;;;;;;;9.40;58.90;;;;;;5072234;28;19996;-30
2023/04/20 05:38:49;;;;;;;;;;;9.50;59.30;;;;;;5072504;28;20319;-30
2023/04/20 05:41:14;;;;;;;;;;;9.50;59.00;;;;;;5072020;28;19912;-35
2023/04/20 05:43:40;;;;;;;;;;;9.50;59.00;;;;;;5071961;28;19924;-31
2023/04/20 05:46:05;;;;;;;;;;;9.50;59.00;;;;;;5071994;28;20280;-30
2023/04/20 05:48:31;;;;;;;;;;;9.60;59.10;;;;;;5071891;28;19912;-30
2023/04/20 05:50:57;;;;;;;;;;;9.60;59.00;;;;;;5072053;28;19912;-30
2023/04/20 05:53:22;;;;;;;;;;;9.60;58.90;;;;;;5071862;28;19956;-30
2023/04/20 05:55:48;;;;;;;;;;;9.70;58.90;;;;;;5072061;28;20005;-28
2023/04/20 05:58:14;;;;;;;;;;;9.70;58.90;;;;;;5071906;28;20383;-30
2023/04/20 06:00:39;;;;;;;;;;;9.80;59.10;;;;;;5071967;28;19958;-30
2023/04/20 06:03:05;;;;;;;;;;;9.70;59.00;;;;;;5071762;28;19913;-32
2023/04/20 06:05:30;;;;;;;;;;;9.70;59.10;;;;;;5070645;28;19912;-31
2023/04/20 06:07:56;;;;;;;;;;;9.80;59.10;;;;;;5071767;28;20267;-31
2023/04/20 06:10:21;;;;;;;;;;;9.80;59.20;;;;;;5070581;28;19916;-32
2023/04/20 06:12:47;;;;;;;;;;;9.80;59.00;;;;;;5071740;28;19920;-34
2023/04/20 06:15:12;;;;;;;;;;;9.90;59.10;;;;;;5071870;28;19912;-41
2023/04/20 06:17:39;;;;;;;;;;;9.90;59.00;;;;;;5071645;28;19912;-42
2023/04/20 06:20:08;;;;;;;;;;;10.00;59.10;;;;;;5071612;28;19912;-43
2023/04/20 06:22:33;;;;;;;;;;;10.00;58.90;;;;;;5071602;28;19938;-44
2023/04/20 06:24:59;;;;;;;;;;;10.00;59.00;;;;;;5071624;28;20015;-47
2023/04/20 06:27:25;;;;;;;;;;;10.10;59.20;;;;;;5071688;28;19912;-44
2023/04/20 06:29:50;;;;;;;;;;;10.10;59.10;;;;;;5071752;28;20433;-44
2023/04/20 06:32:16;;;;;;;;;;;10.10;59.70;;;;;;5071652;28;19912;-44
2023/04/20 06:34:42;;;;;;;;;;;10.10;59.90;;;;;;5071727;28;19920;-34
2023/04/20 06:37:08;;;;;;;;;;;10.10;59.50;;;;;;5071857;28;19913;-35
2023/04/20 06:39:34;;;;;;;;;;;10.10;60.30;;;;;;5071915;28;19962;-34
2023/04/20 06:42:01;;;;;;;;;;;10.10;60.20;;;;;;5071974;28;19943;-41
2023/04/20 06:44:26;;;;;;;;;;;10.10;59.50;;;;;;5071785;28;20070;-34
2023/04/20 06:46:52;;;;;;;;;;;10.10;59.60;;;;;;5071695;28;19962;-35
2023/04/20 06:49:17;;;;;;;;;;;10.10;59.40;;;;;;5071747;28;19924;-41
2023/04/20 06:51:43;;;;;;;;;;;10.20;60.10;;;;;;5071635;28;20246;-38
2023/04/20 06:54:09;;;;;;;;;;;10.30;61.20;;;;;;5071530;28;19920;-39
2023/04/20 06:56:34;;;;;;;;;;;10.30;60.00;;;;;;5071534;28;20269;-27
2023/04/20 06:59:00;;;;;;;;;;;10.20;60.00;;;;;;5071404;28;19938;-26
2023/04/20 07:01:25;;;;;;;;;;;10.20;59.80;;;;;;5071371;28;19912;-31
2023/04/20 07:03:51;;;;;;;;;;;10.20;60.00;;;;;;5071147;28;20003;-26
2023/04/20 07:06:17;;;;;;;;;;;10.10;60.30;;;;;;5071183;28;19912;-29
2023/04/20 07:08:42;;;;;;;;;;;10.20;60.20;;;;;;5071475;28;19919;-26
2023/04/20 07:11:08;;;;;;;;;;;10.20;60.30;;;;;;5071986;28;19912;-26
2023/04/20 07:13:33;;;;;;;;;;;10.20;60.90;;;;;;5075410;28;20010;-28
2023/04/20 07:15:59;;;;;;;;;;;10.30;61.80;;;;;;5074860;28;20345;-26
2023/04/20 07:18:24;;;;;;;;;;;10.30;63.00;;;;;;5074960;28;19989;-31
2023/04/20 07:20:51;;;;;;;;;;;10.40;62.80;;;;;;5074965;28;19920;-26
2023/04/20 07:23:16;;;;;;;;;;;10.50;63.30;;;;;;5074901;28;21890;-30
2023/04/20 07:25:42;;;;;;;;;;;10.60;62.10;;;;;;5074597;28;19984;-27
2023/04/20 07:28:07;;;;;;;;;;;10.60;63.50;;;;;;5073893;28;19912;-28
2023/04/20 07:30:33;;;;;;;;;;;10.50;65.00;;;;;;5074040;28;19924;-29
2023/04/20 07:32:58;;;;;;;;;;;10.50;63.10;;;;;;5075039;28;20001;-27
2023/04/20 07:35:24;;;;;;;;;;;10.50;63.60;;;;;;5074622;28;19913;-28
2023/04/20 07:37:49;;;;;;;;;;;10.50;63.40;;;;;;5074635;28;19919;-26
2023/04/20 07:40:15;;;;;;;;;;;10.50;63.10;;;;;;5074677;28;19919;-30
2023/04/20 07:42:41;;;;;;;;;;;10.50;62.40;;;;;;5074478;28;20334;-26
2023/04/20 07:45:07;;;;;;;;;;;10.50;63.60;;;;;;5074214;28;19991;-27
2023/04/20 07:47:33;;;;;;;;;;;10.70;63.40;;;;;;5074417;28;20067;-28
2023/04/20 07:49:58;;;;;;;;;;;10.80;64.50;;;;;;5072971;28;20245;-26
2023/04/20 07:52:24;;;;;;;;;;;10.90;66.00;;;;;;5074219;28;19934;-27
2023/04/20 07:54:52;;;;;;;;;;;11.00;64.70;;;;;;5074508;28;19916;-25
2023/04/20 07:57:18;;;;;;;;;;;11.10;64.40;;;;;;5074742;28;19970;-28
2023/04/20 07:59:44;;;;;;;;;;;11.10;61.40;;;;;;5074083;28;19920;-38
2023/04/20 08:02:10;;;;;;;;;;;11.00;62.50;;;;;;5074102;28;19912;-42
2023/04/20 08:04:36;;;;;;;;;;;11.00;61.90;;;;;;5074035;28;20442;-34
2023/04/20 08:07:02;;;;;;;;;;;11.00;62.30;;;;;;5074211;28;19919;-34
2023/04/20 08:09:28;;;;;;;;;;;11.10;61.60;;;;;;5073985;28;20352;-34
2023/04/20 08:11:53;;;;;;;;;;;11.00;63.30;;;;;;5074099;28;19923;-34
2023/04/20 08:14:19;;;;;;;;;;;11.00;63.10;;;;;;5074215;28;19912;-35
2023/04/20 08:16:44;;;;;;;;;;;11.00;63.10;;;;;;5074063;28;20062;-34
2023/04/20 08:19:10;;;;;;;;;;;11.00;63.20;;;;;;5074131;28;20011;-35
2023/04/20 08:21:36;;;;;;;;;;;11.00;62.70;;;;;;5073277;28;19928;-34
2023/04/20 08:24:03;;;;;;;;;;;11.00;61.80;;;;;;5073616;28;19916;-35
2023/04/20 08:26:28;;;;;;;;;;;11.10;62.00;;;;;;5073767;28;19938;-35
2023/04/20 08:28:54;;;;;;;;;;;11.10;62.00;;;;;;5073621;28;19970;-33
2023/04/20 08:31:19;;;;;;;;;;;11.10;61.40;;;;;;5073831;28;20011;-35
2023/04/20 08:33:45;;;;;;;;;;;11.20;62.00;;;;;;5073561;28;19928;-34
2023/04/20 08:36:10;;;;;;;;;;;11.30;61.80;;;;;;5073589;28;20022;-35
2023/04/20 08:38:36;;;;;;;;;;;11.40;61.80;;;;;;5073611;28;19962;-39
2023/04/20 08:41:02;;;;;;;;;;;11.40;61.70;;;;;;5073631;28;19912;-35
2023/04/20 08:43:27;;;;;;;;;;;11.40;62.40;;;;;;5072001;28;20433;-34
2023/04/20 08:45:55;;;;;;;;;;;11.40;62.00;;;;;;5073791;28;19923;-35
2023/04/20 08:48:22;;;;;;;;;;;11.30;62.20;;;;;;5073388;28;20003;-35
2023/04/20 08:50:47;;;;;;;;;;;11.30;61.80;;;;;;5072112;28;19935;-34
2023/04/20 08:53:13;;;;;;;;;;;11.30;61.80;;;;;;5073246;28;19913;-34
2023/04/20 08:55:38;;;;;;;;;;;11.30;61.50;;;;;;5073343;28;19990;-38
2023/04/20 08:58:04;;;;;;;;;;;11.30;61.70;;;;;;5073344;28;19912;-35
2023/04/20 09:00:30;;;;;;;;;;;11.40;62.90;;;;;;5073386;28;19912;-35
2023/04/20 09:02:57;;;;;;;;;;;11.40;62.00;;;;;;5073155;28;19999;-34
2023/04/20 09:05:23;;;;;;;;;;;11.40;62.30;;;;;;5073148;28;19956;-34
2023/04/20 09:08:08;;;;;;;;;;;11.40;62.20;;;;;;5073103;28;19935;-34
2023/04/20 09:10:43;;;;;;;;;;;11.40;62.10;;;;;;5072805;28;19934;-35
2023/04/20 09:13:20;;;;;;;;;;;11.40;62.60;;;;;;5071708;28;20015;-35
2023/04/20 09:15:45;;;;;;;;;;;11.40;63.60;;;;;;5072758;28;20003;-35
2023/04/20 09:18:13;;;;;;;;;;;11.40;64.50;;;;;;5072650;28;19959;-35
2023/04/20 09:20:38;;;;;;;;;;;11.30;62.90;;;;;;5072789;28;19912;-35
2023/04/20 09:23:15;;;;;;;;;;;11.40;63.90;;;;;;5071123;28;20342;-34
2023/04/20 09:25:42;;;;;;;;;;;11.50;64.80;;;;;;5072497;28;19935;-35
2023/04/20 09:28:08;;;;;;;;;;;11.50;63.60;;;;;;5072308;28;19919;-34
2023/04/20 09:30:41;;;;;;;;;;;11.60;63.80;;;;;;5070860;28;20012;-36
2023/04/20 09:33:09;;;;;;;;;;;11.60;63.10;;;;;;5071966;28;19920;-33
2023/04/20 09:35:36;;;;;;;;;;;11.60;63.90;;;;;;5072540;28;20599;-39
2023/04/20 09:38:02;;;;;;;;;;;11.60;64.40;;;;;;5071193;28;19919;-35
2023/04/20 09:40:28;;;;;;;;;;;11.60;63.90;;;;;;5072608;28;19913;-34
2023/04/20 09:42:54;;;;;;;;;;;11.50;63.00;;;;;;5072559;28;20007;-34
2023/04/20 09:45:20;;;;;;;;;;;11.30;63.30;;;;;;5072453;28;19959;-35
2023/04/20 09:47:46;;;;;;;;;;;11.10;62.60;;;;;;5072637;28;20069;-33
2023/04/20 09:50:12;;;;;;;;;;;10.90;63.10;;;;;;5072340;28;19916;-46
2023/04/20 09:52:37;;;;;;;;;;;10.90;64.10;;;;;;5072343;28;20003;-34
2023/04/20 09:55:04;;;;;;;;;;;10.80;64.30;;;;;;5072406;28;19923;-33
2023/04/20 09:57:30;;;;;;;;;;;10.90;64.40;;;;;;5072296;28;19919;-35
2023/04/20 09:59:56;;;;;;;;;;;10.90;64.20;;;;;;5072399;28;20585;-35
2023/04/20 10:02:22;;;;;;;;;;;11.10;64.60;;;;;;5072344;28;19913;-36
2023/04/20 10:04:54;;;;;;;;;;;11.30;63.40;;;;;;5072297;28;19917;-36
2023/04/20 10:07:23;;;;;;;;;;;11.50;63.00;;;;;;5070610;28;19913;-34
2023/04/20 10:09:49;;;;;;;;;;;11.60;62.50;;;;;;5072118;28;19928;-34
2023/04/20 10:12:14;;;;;;;;;;;11.90;63.30;;;;;;5072394;28;19913;-32
2023/04/20 10:14:40;;;;;;;;;;;12.10;63.10;;;;;;5072130;28;20383;-35
2023/04/20 10:17:06;;;;;;;;;;;12.20;62.60;;;;;;5072093;28;20305;-34
2023/04/20 10:19:42;;;;;;;;;;;12.30;62.70;;;;;;5072046;28;19951;-35
2023/04/20 10:22:12;;;;;;;;;;;12.50;63.70;;;;;;5072077;28;19908;-34
2023/04/20 10:24:38;;;;;;;;;;;12.60;63.60;;;;;;5072161;28;19912;-34
2023/04/20 10:27:14;;;;;;;;;;;12.70;63.30;;;;;;5072110;28;19919;-37
2023/04/20 10:29:40;;;;;;;;;;;12.80;63.60;;;;;;5072062;28;19978;-33
2023/04/20 10:32:06;;;;;;;;;;;12.90;65.30;;;;;;5072164;28;20431;-34
2023/04/20 10:34:32;;;;;;;;;;;12.90;64.00;;;;;;5072175;28;19916;-35
2023/04/20 10:37:07;;;;;;;;;;;13.00;62.40;;;;;;5070677;28;19930;-34
2023/04/20 10:39:33;;;;;;;;;;;13.10;66.20;;;;;;5072011;28;19962;-36
2023/04/20 10:42:00;;;;;;;;;;;13.00;62.90;;;;;;5071918;28;20378;-46
2023/04/20 10:44:26;;;;;;;;;;;13.00;63.60;;;;;;5071803;28;19916;-34
2023/04/20 10:46:52;;;;;;;;;;;13.00;65.20;;;;;;5075375;28;19909;-35
2023/04/20 10:49:18;;;;;;;;;;;13.10;65.20;;;;;;5076005;28;19908;-34
2023/04/20 10:51:47;;;;;;;;;;;13.20;64.90;;;;;;5075927;28;20349;-35
2023/04/20 10:54:12;;;;;;;;;;;13.20;64.80;;;;;;5075744;28;20344;-36
2023/04/20 10:56:38;;;;;;;;;;;13.20;65.60;;;;;;5075733;28;19916;-35
2023/04/20 10:59:07;;;;;;;;;;;13.30;64.80;;;;;;5075702;28;19909;-36
2023/04/20 11:01:32;;;;;;;;;;;13.50;64.20;;;;;;5075777;28;19947;-38
2023/04/20 11:03:58;;;;;;;;;;;13.60;63.50;;;;;;5075574;28;19951;-35
2023/04/20 11:06:23;;;;;;;;;;;13.60;65.50;;;;;;5075494;28;19909;-36
2023/04/20 11:08:49;;;;;;;;;;;13.50;60.90;;;;;;5075859;28;20328;-36
2023/04/20 11:11:23;;;;;;;;;;;13.50;64.10;;;;;;5075392;28;19908;-35
2023/04/20 11:13:49;;;;;;;;;;;13.40;62.50;;;;;;5075358;28;20385;-35
2023/04/20 11:16:15;;;;;;;;;;;13.20;63.70;;;;;;5075252;28;19908;-36
2023/04/20 11:18:47;;;;;;;;;;;13.10;63.70;;;;;;5075195;28;19908;-35
2023/04/20 11:21:13;;;;;;;;;;;12.90;64.80;;;;;;5075210;28;19963;-36
2023/04/20 11:23:40;;;;;;;;;;;12.80;65.10;;;;;;5075158;28;20367;-35
2023/04/20 11:26:06;;;;;;;;;;;12.60;65.00;;;;;;5075241;28;20380;-34
2023/04/20 11:28:33;;;;;;;;;;;12.60;65.20;;;;;;5075187;28;19916;-36
2023/04/20 11:30:59;;;;;;;;;;;12.70;64.80;;;;;;5074741;28;20003;-35
2023/04/20 11:33:28;;;;;;;;;;;12.80;64.00;;;;;;5075163;28;19954;-35
2023/04/20 11:35:54;;;;;;;;;;;12.80;63.90;;;;;;5074902;28;19920;-35
2023/04/20 11:38:26;;;;;;;;;;;12.90;63.70;;;;;;5074798;28;19909;-35
2023/04/20 11:40:52;;;;;;;;;;;13.00;64.60;;;;;;5074848;28;20062;-36
2023/04/20 11:43:17;;;;;;;;;;;13.10;66.10;;;;;;5074656;28;19948;-35
2023/04/20 11:45:43;;;;;;;;;;;13.10;66.30;;;;;;5074780;28;19913;-36
2023/04/20 11:48:09;;;;;;;;;;;13.10;65.70;;;;;;5074738;28;20053;-35
2023/04/20 11:50:35;;;;;;;;;;;13.10;64.90;;;;;;5074602;28;19995;-35
2023/04/20 11:53:01;;;;;;;;;;;13.00;63.70;;;;;;5074671;28;19992;-36
2023/04/20 11:55:26;;;;;;;;;;;13.00;60.40;;;;;;5074692;28;19919;-37
2023/04/20 11:57:52;;;;;;;;;;;12.90;62.40;;;;;;5073010;28;19908;-35
2023/04/20 12:00:18;;;;;;;;;;;12.90;65.10;;;;;;5074456;28;19909;-35
2023/04/20 12:02:43;;;;;;;;;;;12.90;62.10;;;;;;5074394;28;20007;-26
2023/04/20 12:05:10;;;;;;;;;;;12.90;61.10;;;;;;5074164;28;20012;-33
2023/04/20 12:07:35;;;;;;;;;;;12.80;63.40;;;;;;5074112;28;19909;-45
2023/04/20 12:10:01;;;;;;;;;;;12.70;65.00;;;;;;5073910;28;19915;-26
2023/04/20 12:12:27;;;;;;;;;;;12.60;66.30;;;;;;5074166;28;19958;-27
2023/04/20 12:14:52;;;;;;;;;;;12.50;64.60;;;;;;5072664;28;20003;-26
2023/04/20 12:17:18;;;;;;;;;;;12.50;64.80;;;;;;5073848;28;19914;-29
2023/04/20 12:19:43;;;;;;;;;;;12.60;66.00;;;;;;5073456;28;19912;-30
2023/04/20 12:22:09;;;;;;;;;;;12.70;66.10;;;;;;5073342;28;19908;-27
2023/04/20 12:24:34;;;;;;;;;;;12.70;66.40;;;;;;5073261;28;19958;-26
2023/04/20 12:27:00;;;;;;;;;;;12.80;65.50;;;;;;5073413;28;20240;-28
2023/04/20 12:29:25;;;;;;;;;;;12.80;67.00;;;;;;5072087;28;19913;-27
2023/04/20 12:31:51;;;;;;;;;;;12.70;65.10;;;;;;5073626;28;19916;-28
2023/04/20 12:34:16;;;;;;;;;;;12.70;65.50;;;;;;5073681;28;20322;-33
2023/04/20 12:36:42;;;;;;;;;;;12.60;63.40;;;;;;5072147;28;19909;-26
2023/04/20 12:39:07;;;;;;;;;;;12.50;61.10;;;;;;5073524;28;20359;-26
2023/04/20 12:41:33;;;;;;;;;;;12.50;62.90;;;;;;5072059;28;19962;-26
2023/04/20 12:43:59;;;;;;;;;;;12.50;65.80;;;;;;5073089;28;20364;-27
2023/04/20 12:46:24;;;;;;;;;;;12.40;66.70;;;;;;5073429;28;19915;-29
2023/04/20 12:48:50;;;;;;;;;;;12.50;66.40;;;;;;5073543;28;19909;-30
2023/04/20 12:51:15;;;;;;;;;;;12.60;66.10;;;;;;5071900;28;19983;-26
2023/04/20 12:53:41;;;;;;;;;;;12.70;65.60;;;;;;5073286;28;19995;-26
2023/04/20 12:56:06;;;;;;;;;;;12.80;67.10;;;;;;5072009;28;19908;-30
2023/04/20 12:58:32;;;;;;;;;;;13.00;66.10;;;;;;5073273;28;19908;-27
2023/04/20 13:00:57;;;;;;;;;;;13.00;64.60;;;;;;5073140;28;19909;-29
2023/04/20 13:03:23;;;;;;;;;;;13.10;66.30;;;;;;5073402;28;19908;-27
2023/04/20 13:05:49;;;;;;;;;;;13.10;66.00;;;;;;5073323;28;19909;-30
2023/04/20 13:08:14;;;;;;;;;;;13.00;66.30;;;;;;5071259;28;19985;-27
2023/04/20 13:10:43;;;;;;;;;;;13.10;64.50;;;;;;5073050;28;19908;-27
2023/04/20 13:13:11;;;;;;;;;;;13.00;65.10;;;;;;5073048;28;19908;-34
2023/04/20 13:15:37;;;;;;;;;;;13.10;64.50;;;;;;5072961;28;20368;-27
2023/04/20 13:18:03;;;;;;;;;;;13.10;61.40;;;;;;5073086;28;19909;-29
2023/04/20 13:20:29;;;;;;;;;;;13.20;63.20;;;;;;5072868;28;19912;-31
2023/04/20 13:22:56;;;;;;;;;;;13.20;63.60;;;;;;5072786;28;19983;-33
2023/04/20 13:25:23;;;;;;;;;;;13.30;65.10;;;;;;5072922;28;19961;-29
2023/04/20 13:27:48;;;;;;;;;;;13.40;64.90;;;;;;5072704;28;19909;-31
2023/04/20 13:30:14;;;;;;;;;;;13.40;65.20;;;;;;5072645;28;20437;-26
2023/04/20 13:32:39;;;;;;;;;;;13.40;62.90;;;;;;5072698;28;20395;-29
2023/04/20 13:35:05;;;;;;;;;;;13.30;62.60;;;;;;5072691;28;19908;-26
2023/04/20 13:37:32;;;;;;;;;;;13.20;62.60;;;;;;5072531;28;19958;-30
2023/04/20 13:39:58;;;;;;;;;;;13.20;65.40;;;;;;5072506;28;19915;-31
2023/04/20 13:42:23;;;;;;;;;;;13.20;63.10;;;;;;5072403;28;20272;-26
2023/04/20 13:44:49;;;;;;;;;;;13.20;64.30;;;;;;5072510;28;20031;-28
2023/04/20 13:47:14;;;;;;;;;;;13.20;63.00;;;;;;5072521;28;19908;-26
2023/04/20 13:49:40;;;;;;;;;;;13.20;64.20;;;;;;5072611;28;19916;-27
2023/04/20 13:52:05;;;;;;;;;;;13.20;63.60;;;;;;5070967;28;19909;-33
2023/04/20 13:54:31;;;;;;;;;;;13.30;63.60;;;;;;5072291;28;19927;-28
2023/04/20 13:56:56;;;;;;;;;;;13.50;63.50;;;;;;5072337;28;19909;-28
2023/04/20 13:59:22;;;;;;;;;;;13.80;63.40;;;;;;5072284;28;19931;-27
2023/04/20 14:01:47;;;;;;;;;;;14.00;63.40;;;;;;5072327;28;19974;-35
2023/04/20 14:04:15;;;;;;;;;;;14.30;64.40;;;;;;5072089;28;19934;-28
2023/04/20 14:06:41;;;;;;;;;;;14.50;63.50;;;;;;5072301;28;19908;-28
2023/04/20 14:09:06;;;;;;;;;;;14.50;63.90;;;;;;5070769;28;19935;-27
2023/04/20 14:11:32;;;;;;;;;;;14.30;63.10;;;;;;5072246;28;19920;-25
2023/04/20 14:13:57;;;;;;;;;;;14.20;64.60;;;;;;5072247;28;20292;-35
2023/04/20 14:16:23;;;;;;;;;;;14.10;63.80;;;;;;5072344;28;20009;-31